Flight Track Log - Related Links

Times and Time Zones

All times are in EDT time to prevent confusion due to time zone crossing. See the N987TS flight status page for this flight to view local times or setup timezone preferences in your user account.

Time Position Orientation Groundspeed Altitude Reporting Facility
EDT Latitude Longitude Course Direction KTS MPH feet Rate Location/Type
Fri 05:50:10 PM 33.1167 -117.3167 312° West 108 124 1,700  Level Southern California TRACON
Fri 05:51:11 PM 33.1167 -117.3667 270° West 111 128 2,600 756 Climbing Southern California TRACON
Fri 05:52:17 PM 33.1167 -117.4000 270° West 119 137 3,300 600 Climbing Southern California TRACON
Fri 05:53:11 PM 33.1333 -117.4167 320° Northwest 131 151 3,800 368 Climbing Southern California TRACON
Fri 05:54:11 PM 33.1667 -117.4167 360° North 138 159 4,000 95 Climbing Southern California TRACON
Fri 05:55:00 PM 33.2654 -117.4594 312° West  Level FlightAware Approximate
Fri 05:55:17 PM 33.2167 -117.4167 360° North 153 176 4,000  Level Southern California TRACON
Fri 05:56:18 PM 33.2500 -117.4333 337° Northwest 156 180 4,000  Level Southern California TRACON
Fri 05:57:12 PM 33.2667 -117.4500 320° Northwest 150 173 4,000  Level Southern California TRACON
Fri 05:58:12 PM 33.3000 -117.5000 309° West 150 173 4,000  Level Southern California TRACON
Fri 05:59:13 PM 33.3333 -117.5333 320° Northwest 152 175 4,000  Level Southern California TRACON
Fri 06:00:13 PM 33.3667 -117.5667 320° Northwest 150 173 4,000  Level Southern California TRACON
Fri 06:01:19 PM 33.4000 -117.6000 320° Northwest 150 173 4,000  Level Southern California TRACON
Fri 06:02:14 PM 33.4167 -117.6333 301° West 149 171 4,000  Level Southern California TRACON
Fri 06:03:14 PM 33.4500 -117.6667 320° Northwest 151 174 4,000  Level Southern California TRACON
Fri 06:04:14 PM 33.5000 -117.6833 344° North 151 174 4,000  Level Southern California TRACON
Fri 06:05:14 PM 33.5333 -117.7000 337° Northwest 150 173 4,000  Level Southern California TRACON
Fri 06:06:14 PM 33.5667 -117.7167 337° Northwest 151 174 4,000  Level Southern California TRACON
Fri 06:07:20 PM 33.6167 -117.7500 331° Northwest 154 177 4,000  Level Southern California TRACON
Fri 06:08:21 PM 33.6500 -117.7833 320° Northwest 154 177 4,000  Level Southern California TRACON
Fri 06:09:21 PM 33.6667 -117.8333 292° West 151 174 4,000  Level Southern California TRACON
Fri 06:10:21 PM 33.6833 -117.8667 301° West 154 177 4,000 -250 Level Southern California TRACON
Fri 06:11:21 PM 33.6833 -117.9167 270° West 164 189 3,500 -500 Descending Southern California TRACON
Fri 06:12:21 PM 33.6833 -117.9833 270° West 166 191 3,000 -700 Descending Southern California TRACON
Fri 06:13:21 PM 33.7000 -118.0167 301° West 162 186 2,100 -737 Descending Southern California TRACON
Fri 06:14:15 PM 33.7333 -118.0500 320° Northwest 132 152 1,600 -263 Descending Southern California TRACON
Fri 06:15:15 PM 33.7500 -118.0667 320° Northwest 104 120 1,600 -250 Level Southern California TRACON
Fri 06:16:15 PM 33.7667 -118.1000 301° West 95 109 1,100 -450 Descending Southern California TRACON
Fri 06:17:15 PM 33.7833 -118.1167 320° Northwest 95 109 700 -450 Descending Southern California TRACON
Fri 06:18:15 PM 33.8000 -118.1333 320° Northwest 86 99 200 -500 Descending Southern California TRACON
Fri 06:20:00 PM 33.8167 -118.1500 314° West  Level FlightAware Approximate

Login

Don't have an account? Register now (free) for customized features, flight alerts, and more!